Time;durP1;ratioP1;P1;durP2;ratioP2;P2;SDS_P1;SDS_P2;PMS_P1;PMS_P2;Temp;Humidity;BMP_temperature;BMP_pressure;BME280_temperature;BME280_humidity;BME280_pressure;Samples;Min_cycle;Max_cycle;Signal;HPM_P1;HPM_P2
2023/08/05 00:00:35;;;;;;;8.00;6.70;;;13.00;99.90;;;;;;5065568;28;20032;-74
2023/08/05 00:03:01;;;;;;;10.50;6.68;;;13.00;99.90;;;;;;5072308;28;20398;-74
2023/08/05 00:05:27;;;;;;;8.57;6.15;;;13.10;99.90;;;;;;5081229;28;20213;-74
2023/08/05 00:07:52;;;;;;;10.30;6.65;;;13.10;99.90;;;;;;5060326;28;20043;-74
2023/08/05 00:10:18;;;;;;;8.10;6.45;;;13.10;99.90;;;;;;5062441;28;20189;-74
2023/08/05 00:12:44;;;;;;;11.65;6.38;;;13.10;99.90;;;;;;5077099;28;20131;-74
2023/08/05 00:15:10;;;;;;;8.18;6.03;;;13.10;99.90;;;;;;5085307;28;20047;-74
2023/08/05 00:17:35;;;;;;;8.65;5.80;;;13.10;99.90;;;;;;5076466;28;20406;-74
2023/08/05 00:20:01;;;;;;;8.65;6.55;;;13.10;99.90;;;;;;5079197;28;20146;-74
2023/08/05 00:22:27;;;;;;;7.97;6.72;;;13.20;99.90;;;;;;5061987;28;20790;-74
2023/08/05 00:24:53;;;;;;;10.07;6.80;;;13.20;99.90;;;;;;5081528;28;20169;-74
2023/08/05 00:27:18;;;;;;;9.23;6.95;;;13.20;99.90;;;;;;5060773;28;20511;-74
2023/08/05 00:29:46;;;;;;;8.95;6.75;;;13.20;99.90;;;;;;5079277;28;20040;-74
2023/08/05 00:32:11;;;;;;;8.98;6.15;;;13.30;99.90;;;;;;5063085;28;20509;-74
2023/08/05 00:34:40;;;;;;;10.18;6.55;;;13.30;99.90;;;;;;5080667;28;20044;-74
2023/08/05 00:37:06;;;;;;;9.27;6.55;;;13.20;99.90;;;;;;5061588;28;20248;-74
2023/08/05 00:39:31;;;;;;;9.32;6.03;;;13.20;99.90;;;;;;5065407;28;20163;-74
2023/08/05 00:41:57;;;;;;;9.77;7.15;;;13.20;99.90;;;;;;5071804;28;20047;-74
2023/08/05 00:44:23;;;;;;;9.15;6.90;;;13.20;99.90;;;;;;5079700;28;20036;-76
2023/08/05 00:46:50;;;;;;;9.48;7.32;;;13.20;99.90;;;;;;5064808;28;20557;-76
2023/08/05 00:49:16;;;;;;;10.88;7.10;;;13.30;99.90;;;;;;5062349;28;20083;-76
2023/08/05 00:51:42;;;;;;;9.30;7.00;;;13.30;99.90;;;;;;5082387;28;20122;-74
2023/08/05 00:54:08;;;;;;;8.00;6.50;;;13.30;99.90;;;;;;5065822;28;20479;-74
2023/08/05 00:56:34;;;;;;;12.18;9.15;;;13.30;99.90;;;;;;5081936;28;20036;-74
2023/08/05 00:59:00;;;;;;;9.82;7.38;;;13.40;99.90;;;;;;5062015;28;20036;-75
2023/08/05 01:01:26;;;;;;;9.18;7.63;;;13.30;99.90;;;;;;5084426;28;20048;-75
2023/08/05 01:03:52;;;;;;;9.48;7.70;;;13.30;99.90;;;;;;5081009;28;20036;-75
2023/08/05 01:06:20;;;;;;;9.55;7.65;;;13.40;99.90;;;;;;5078159;28;20115;-75
2023/08/05 01:08:47;;;;;;;13.82;10.00;;;13.30;99.90;;;;;;5083026;28;20527;-75
2023/08/05 01:11:13;;;;;;;9.88;7.63;;;13.40;99.90;;;;;;5078206;28;20412;-74
2023/08/05 01:13:40;;;;;;;11.10;7.65;;;13.30;99.90;;;;;;5066455;28;20048;-75
2023/08/05 01:16:05;;;;;;;10.52;7.80;;;13.30;99.90;;;;;;5082433;28;20055;-75
2023/08/05 01:18:34;;;;;;;8.57;7.43;;;13.30;99.90;;;;;;5083292;28;20043;-75
2023/08/05 01:21:06;;;;;;;8.98;7.47;;;13.30;99.90;;;;;;5081949;28;20083;-75
2023/08/05 01:24:19;;;;;;;10.57;7.88;;;13.40;99.90;;;;;;5078130;28;20048;-75
2023/08/05 01:26:46;;;;;;;9.90;8.00;;;13.40;99.90;;;;;;4996338;28;20871;-74
2023/08/05 01:29:12;;;;;;;8.32;7.30;;;13.40;99.90;;;;;;5082832;28;20059;-75
2023/08/05 01:31:45;;;;;;;7.40;6.60;;;13.30;99.90;;;;;;5066838;28;20036;-75
2023/08/05 01:34:14;;;;;;;8.55;6.10;;;13.30;99.90;;;;;;5078166;28;20081;-75
2023/08/05 01:36:40;;;;;;;8.35;6.65;;;13.20;99.90;;;;;;5084337;28;20051;-73
2023/08/05 01:39:05;;;;;;;9.88;6.97;;;13.10;99.90;;;;;;5065870;28;20051;-74
2023/08/05 01:41:31;;;;;;;7.93;6.63;;;13.10;99.90;;;;;;5083808;28;20032;-74
2023/08/05 01:43:57;;;;;;;8.57;7.15;;;13.00;99.90;;;;;;5062948;28;20040;-75
2023/08/05 01:46:23;;;;;;;7.72;5.95;;;13.00;99.90;;;;;;5052143;28;20055;-75
2023/08/05 01:48:48;;;;;;;9.45;6.95;;;12.90;99.90;;;;;;5071422;28;20064;-75
2023/08/05 01:51:14;;;;;;;10.50;7.43;;;12.90;99.90;;;;;;5073293;28;20173;-75
2023/08/05 01:53:40;;;;;;;10.65;7.90;;;12.90;99.90;;;;;;5070788;28;20105;-75
2023/08/05 01:56:06;;;;;;;9.23;7.25;;;12.90;99.90;;;;;;5072396;28;20047;-75
2023/08/05 01:58:31;;;;;;;9.07;6.93;;;12.80;99.90;;;;;;5072795;28;20032;-75
2023/08/05 02:00:57;;;;;;;12.60;6.53;;;12.80;99.90;;;;;;5068458;28;20256;-75
2023/08/05 02:03:23;;;;;;;8.93;6.93;;;12.70;99.90;;;;;;5071074;28;20056;-75
2023/08/05 02:05:49;;;;;;;9.50;7.38;;;12.60;99.90;;;;;;5069775;28;20044;-75
2023/08/05 02:08:14;;;;;;;9.32;8.20;;;12.60;99.90;;;;;;5069431;28;20048;-75
2023/08/05 02:10:41;;;;;;;10.60;8.38;;;12.60;99.90;;;;;;5053253;28;20040;-75
2023/08/05 02:13:09;;;;;;;9.23;6.72;;;12.60;99.90;;;;;;5067952;28;20048;-75
2023/08/05 02:15:35;;;;;;;8.80;6.97;;;12.50;99.90;;;;;;5067393;28;20454;-75
2023/08/05 02:18:02;;;;;;;8.50;7.35;;;12.50;99.90;;;;;;5069650;28;21136;-75
2023/08/05 02:20:27;;;;;;;9.00;7.00;;;12.50;99.90;;;;;;5071975;28;20574;-75
2023/08/05 02:22:53;;;;;;;9.68;7.07;;;12.50;99.90;;;;;;5069590;28;20056;-75
2023/08/05 02:25:19;;;;;;;10.43;7.50;;;12.50;99.90;;;;;;5070979;28;20055;-75
2023/08/05 02:27:45;;;;;;;9.13;7.72;;;12.40;99.90;;;;;;5073116;28;20489;-75
2023/08/05 02:30:10;;;;;;;9.73;7.03;;;12.40;99.90;;;;;;5071432;28;20501;-75
2023/08/05 02:32:36;;;;;;;8.27;7.28;;;12.40;99.90;;;;;;5067230;28;20056;-74
2023/08/05 02:35:02;;;;;;;7.95;6.28;;;12.40;99.90;;;;;;5054854;28;20078;-74
2023/08/05 02:37:28;;;;;;;10.63;7.45;;;12.40;99.90;;;;;;5055912;28;20375;-75
2023/08/05 02:39:54;;;;;;;9.27;6.25;;;12.30;99.90;;;;;;5052964;28;20134;-75
2023/08/05 02:42:20;;;;;;;7.22;5.85;;;12.30;99.90;;;;;;5069528;28;20048;-75
2023/08/05 02:44:45;;;;;;;8.05;6.20;;;12.30;99.90;;;;;;5071590;28;20048;-75
2023/08/05 02:47:11;;;;;;;7.68;6.70;;;12.30;99.90;;;;;;5073407;28;20761;-75
2023/08/05 02:49:40;;;;;;;6.97;5.47;;;12.30;99.90;;;;;;5073277;28;20047;-75
2023/08/05 02:52:06;;;;;;;6.22;5.57;;;12.20;99.90;;;;;;5072341;28;20148;-75
2023/08/05 02:54:32;;;;;;;10.35;6.22;;;12.20;99.90;;;;;;5073159;28;20048;-75
2023/08/05 02:56:57;;;;;;;10.38;6.10;;;12.10;99.90;;;;;;5056788;28;20437;-75
2023/08/05 02:59:23;;;;;;;8.20;6.32;;;12.10;99.90;;;;;;5073715;28;20678;-75
2023/08/05 03:01:49;;;;;;;8.95;6.50;;;12.10;99.90;;;;;;5071830;28;20075;-75
2023/08/05 03:04:14;;;;;;;6.10;5.35;;;12.10;99.90;;;;;;5073698;28;20502;-75
2023/08/05 03:06:40;;;;;;;7.57;5.75;;;12.10;99.90;;;;;;5073053;28;20036;-75
2023/08/05 03:09:06;;;;;;;8.98;5.80;;;12.10;99.90;;;;;;5073475;28;20244;-75
2023/08/05 03:11:32;;;;;;;9.88;6.65;;;12.10;99.90;;;;;;5055234;28;20588;-75
2023/08/05 03:13:57;;;;;;;8.27;6.38;;;12.10;99.90;;;;;;5056786;28;20050;-75
2023/08/05 03:16:23;;;;;;;7.78;6.57;;;12.00;99.90;;;;;;5057600;28;20084;-75
2023/08/05 03:18:49;;;;;;;8.50;6.60;;;12.00;99.90;;;;;;5072812;28;20549;-75
2023/08/05 03:21:15;;;;;;;10.60;6.40;;;12.00;99.90;;;;;;5073574;28;20078;-75
2023/08/05 03:23:41;;;;;;;9.35;6.90;;;12.00;99.90;;;;;;5074239;28;20546;-75
2023/08/05 03:26:06;;;;;;;10.68;7.03;;;12.10;99.90;;;;;;5075466;28;20058;-75
2023/08/05 03:28:32;;;;;;;7.15;5.90;;;12.10;99.90;;;;;;5074945;28;20109;-75
2023/08/05 03:30:58;;;;;;;10.00;6.85;;;12.20;99.90;;;;;;5073632;27;20054;-75
2023/08/05 03:33:24;;;;;;;9.82;6.47;;;12.20;99.90;;;;;;5056271;28;20036;-75
2023/08/05 03:35:50;;;;;;;10.32;6.93;;;12.30;99.90;;;;;;5056084;28;20115;-75
2023/08/05 03:38:17;;;;;;;8.02;6.63;;;12.30;99.90;;;;;;5071532;28;20219;-75
2023/08/05 03:40:43;;;;;;;7.30;5.53;;;12.30;99.90;;;;;;5056800;28;20031;-75
2023/08/05 03:43:09;;;;;;;7.35;5.93;;;12.30;99.90;;;;;;5073432;28;20047;-75
2023/08/05 03:45:35;;;;;;;7.60;5.50;;;12.30;99.90;;;;;;5057762;28;20035;-75
2023/08/05 03:48:01;;;;;;;7.90;5.75;;;12.30;99.90;;;;;;5055582;28;20999;-75
2023/08/05 03:50:28;;;;;;;10.00;6.28;;;12.40;99.90;;;;;;5090631;28;20393;-75
2023/08/05 03:52:54;;;;;;;6.55;5.60;;;12.40;99.90;;;;;;5071579;28;20717;-75
2023/08/05 03:55:21;;;;;;;10.35;6.63;;;12.40;99.90;;;;;;5056682;28;20039;-75
2023/08/05 03:57:47;;;;;;;8.35;6.60;;;12.50;99.90;;;;;;5073174;28;20127;-74
2023/08/05 04:00:14;;;;;;;8.02;6.00;;;12.50;99.90;;;;;;5055074;28;20048;-75
2023/08/05 04:02:42;;;;;;;9.77;5.72;;;12.50;99.90;;;;;;5062877;28;20044;-76
2023/08/05 04:05:11;;;;;;;8.10;6.95;;;12.50;99.90;;;;;;5055164;28;20712;-75
2023/08/05 04:07:40;;;;;;;12.13;7.60;;;12.60;99.90;;;;;;5071258;28;20054;-76
2023/08/05 04:10:07;;;;;;;12.10;8.02;;;12.60;99.90;;;;;;5073313;28;20046;-75
2023/08/05 04:12:35;;;;;;;8.30;6.65;;;12.60;99.90;;;;;;5054885;28;20070;-76
2023/08/05 04:15:02;;;;;;;10.23;7.13;;;12.70;99.90;;;;;;5055881;28;20039;-75
2023/08/05 04:17:29;;;;;;;14.88;8.43;;;12.70;99.90;;;;;;5074976;28;20070;-75
2023/08/05 04:19:55;;;;;;;9.30;7.40;;;12.70;99.90;;;;;;5060133;28;20040;-76
2023/08/05 04:22:26;;;;;;;11.27;8.63;;;12.70;99.90;;;;;;5060068;28;20039;-75
2023/08/05 04:24:53;;;;;;;9.65;6.72;;;12.80;99.90;;;;;;5075735;28;20123;-74
2023/08/05 04:27:21;;;;;;;11.98;7.78;;;12.80;99.90;;;;;;5058951;28;20101;-75
2023/08/05 04:29:47;;;;;;;8.95;7.10;;;12.80;99.90;;;;;;5059847;28;20050;-75
2023/08/05 04:32:13;;;;;;;10.23;8.02;;;12.90;99.90;;;;;;5057516;28;20047;-75
2023/08/05 04:34:39;;;;;;;10.43;8.07;;;12.90;99.90;;;;;;5075590;28;20443;-75
2023/08/05 04:37:21;;;;;;;8.95;8.05;;;12.90;99.90;;;;;;5057989;28;20290;-75
2023/08/05 04:39:48;;;;;;;15.02;8.23;;;13.00;99.90;;;;;;5060522;28;20039;-75
2023/08/05 04:42:14;;;;;;;9.40;7.10;;;13.10;99.90;;;;;;5074147;28;21072;-75
2023/08/05 04:44:40;;;;;;;10.40;7.53;;;13.10;99.90;;;;;;5077807;28;20043;-75
2023/08/05 04:47:07;;;;;;;12.15;8.02;;;13.10;99.90;;;;;;5073450;28;20051;-75
2023/08/05 04:49:33;;;;;;;11.07;8.82;;;13.10;99.90;;;;;;5077183;28;20375;-75
2023/08/05 04:51:59;;;;;;;12.18;9.82;;;13.10;99.90;;;;;;5108129;27;20044;-75
2023/08/05 04:54:24;;;;;;;13.98;10.00;;;13.10;99.90;;;;;;5074240;28;20039;-75
2023/08/05 04:56:50;;;;;;;10.50;9.23;;;13.10;99.90;;;;;;5062324;28;20079;-75
2023/08/05 04:59:16;;;;;;;10.45;9.30;;;13.10;99.90;;;;;;5059918;28;20382;-75
2023/08/05 05:01:41;;;;;;;14.25;8.75;;;13.10;99.90;;;;;;5074937;28;20047;-74
2023/08/05 05:04:07;;;;;;;12.70;9.68;;;13.10;99.90;;;;;;5074824;28;20039;-75
2023/08/05 05:06:33;;;;;;;11.50;7.72;;;13.10;99.90;;;;;;5093863;28;20062;-75
2023/08/05 05:08:59;;;;;;;11.23;7.65;;;13.10;99.90;;;;;;5091143;28;20028;-75
2023/08/05 05:11:24;;;;;;;9.73;8.38;;;13.10;99.90;;;;;;5060355;28;20043;-75
2023/08/05 05:13:52;;;;;;;11.50;8.43;;;13.20;99.90;;;;;;5075111;28;20374;-75
2023/08/05 05:16:18;;;;;;;13.40;7.20;;;13.20;99.90;;;;;;5092659;28;20051;-77
2023/08/05 05:18:44;;;;;;;11.20;7.72;;;13.30;99.90;;;;;;5058751;28;20036;-77
2023/08/05 05:21:10;;;;;;;9.32;7.30;;;13.40;99.90;;;;;;5076227;28;20135;-77
2023/08/05 05:23:36;;;;;;;10.20;6.50;;;13.50;99.90;;;;;;5058649;28;20047;-77
2023/08/05 05:26:01;;;;;;;10.50;6.28;;;13.50;99.90;;;;;;5075607;27;20492;-74
2023/08/05 05:28:27;;;;;;;8.95;6.30;;;13.60;99.90;;;;;;5076006;28;20211;-74
2023/08/05 05:30:53;;;;;;;9.55;6.53;;;13.70;99.90;;;;;;5058094;28;20039;-74
2023/08/05 05:33:19;;;;;;;11.35;6.40;;;13.70;99.90;;;;;;5075790;28;20047;-76
2023/08/05 05:35:44;;;;;;;9.45;5.95;;;13.80;99.90;;;;;;5073662;28;20308;-76
2023/08/05 05:38:10;;;;;;;8.93;6.00;;;13.90;99.90;;;;;;5073331;28;20071;-75
2023/08/05 05:40:40;;;;;;;10.90;6.20;;;13.90;99.90;;;;;;5076232;28;20075;-74
2023/08/05 05:43:07;;;;;;;9.48;6.05;;;14.00;99.90;;;;;;5074409;28;20047;-74
2023/08/05 05:45:35;;;;;;;8.15;5.65;;;14.00;99.90;;;;;;5056273;28;20040;-74
2023/08/05 05:48:00;;;;;;;7.53;5.45;;;14.10;99.90;;;;;;5072880;28;20051;-74
2023/08/05 05:50:26;;;;;;;8.68;5.35;;;14.10;99.90;;;;;;5055628;28;20040;-74
2023/08/05 05:52:53;;;;;;;8.30;5.78;;;14.10;99.90;;;;;;5107700;27;20854;-74
2023/08/05 05:55:19;;;;;;;8.18;5.43;;;14.20;99.90;;;;;;5053881;28;20075;-74
2023/08/05 05:57:45;;;;;;;7.78;5.38;;;14.20;99.90;;;;;;5057181;28;20123;-74
2023/08/05 06:00:15;;;;;;;8.07;4.97;;;14.20;99.90;;;;;;5078001;28;20040;-75
2023/08/05 06:02:41;;;;;;;10.55;5.82;;;14.20;99.90;;;;;;5078022;28;20079;-74
2023/08/05 06:05:08;;;;;;;9.70;6.47;;;14.30;99.90;;;;;;5058415;28;20059;-74
2023/08/05 06:07:33;;;;;;;8.30;6.10;;;14.40;99.90;;;;;;5061202;27;20043;-74
2023/08/05 06:09:59;;;;;;;10.63;6.75;;;14.40;99.90;;;;;;5075553;28;20063;-75
2023/08/05 06:12:30;;;;;;;7.32;6.38;;;14.40;99.90;;;;;;5079339;28;20065;-75
2023/08/05 06:14:56;;;;;;;9.50;6.50;;;14.50;99.90;;;;;;5075875;28;20055;-75
2023/08/05 06:17:22;;;;;;;9.18;5.57;;;14.50;99.90;;;;;;5059900;28;20043;-75
2023/08/05 06:19:48;;;;;;;8.95;5.57;;;14.50;99.90;;;;;;5075357;28;20055;-74
2023/08/05 06:22:13;;;;;;;8.63;5.65;;;14.60;99.90;;;;;;5079201;28;20047;-74
2023/08/05 06:24:39;;;;;;;8.48;5.75;;;14.60;99.90;;;;;;5110545;27;20413;-74
2023/08/05 06:27:05;;;;;;;7.45;5.53;;;14.70;99.90;;;;;;5078006;28;20046;-74
2023/08/05 06:29:31;;;;;;;8.32;4.80;;;14.70;99.90;;;;;;5077943;28;20059;-74
2023/08/05 06:31:57;;;;;;;8.15;4.57;;;14.80;99.90;;;;;;5076859;28;20051;-74
2023/08/05 06:34:23;;;;;;;7.95;4.68;;;14.90;99.90;;;;;;5078849;28;20036;-74
2023/08/05 06:36:49;;;;;;;9.32;4.70;;;15.00;99.90;;;;;;5076812;28;20118;-74
2023/08/05 06:39:15;;;;;;;6.80;4.68;;;15.10;99.90;;;;;;5060629;28;20134;-75
2023/08/05 06:41:40;;;;;;;7.47;4.80;;;15.20;99.90;;;;;;5074323;28;20039;-75
2023/08/05 06:44:06;;;;;;;7.55;4.47;;;15.30;99.90;;;;;;5072546;28;20039;-75
2023/08/05 06:46:32;;;;;;;7.20;4.72;;;15.30;99.90;;;;;;5071449;28;20789;-75
2023/08/05 06:48:58;;;;;;;7.40;4.50;;;15.40;99.90;;;;;;5070803;28;20126;-75
2023/08/05 06:51:24;;;;;;;6.15;4.20;;;15.40;99.90;;;;;;5089062;28;20590;-75
2023/08/05 06:53:50;;;;;;;7.07;4.45;;;15.50;99.90;;;;;;5060565;28;20051;-75
2023/08/05 06:56:15;;;;;;;9.32;4.68;;;15.50;99.90;;;;;;5056993;28;20044;-75
2023/08/05 06:58:41;;;;;;;8.63;5.63;;;15.50;99.90;;;;;;5075729;28;20039;-75
2023/08/05 07:01:07;;;;;;;8.10;5.93;;;15.60;99.90;;;;;;5059045;28;20101;-75
2023/08/05 07:03:35;;;;;;;7.72;4.95;;;15.60;99.90;;;;;;5077726;28;20044;-75
2023/08/05 07:06:01;;;;;;;7.28;4.63;;;15.70;99.90;;;;;;5073542;28;20075;-75
2023/08/05 07:08:28;;;;;;;7.05;4.13;;;15.70;99.90;;;;;;5076940;28;20043;-75
2023/08/05 07:10:54;;;;;;;6.13;3.85;;;15.80;99.90;;;;;;5074336;28;20067;-75
2023/08/05 07:13:20;;;;;;;7.32;4.05;;;15.80;99.90;;;;;;5061131;28;20122;-75
2023/08/05 07:15:48;;;;;;;7.00;4.05;;;15.80;99.90;;;;;;5074279;28;21111;-75
2023/08/05 07:18:14;;;;;;;8.40;4.50;;;15.90;99.90;;;;;;5056358;28;21001;-75
2023/08/05 07:20:40;;;;;;;7.57;4.80;;;15.90;99.90;;;;;;5112135;27;20658;-75
2023/08/05 07:23:06;;;;;;;7.05;4.53;;;15.90;99.90;;;;;;5059746;28;20108;-75
2023/08/05 07:25:32;;;;;;;7.53;4.30;;;16.00;99.90;;;;;;5058275;28;20039;-75
2023/08/05 07:27:58;;;;;;;11.23;4.78;;;16.00;99.90;;;;;;5070813;28;20044;-75
2023/08/05 07:30:23;;;;;;;8.25;4.78;;;16.00;99.90;;;;;;5054685;27;20139;-74
2023/08/05 07:32:49;;;;;;;7.35;4.70;;;16.00;99.90;;;;;;5069350;28;20047;-75
2023/08/05 07:35:15;;;;;;;9.70;5.13;;;16.20;99.90;;;;;;5054237;28;20051;-75
2023/08/05 07:37:44;;;;;;;10.63;4.78;;;16.20;99.90;;;;;;5105161;27;20050;-74
2023/08/05 07:40:12;;;;;;;7.50;4.70;;;16.30;99.90;;;;;;5054446;28;20162;-75
2023/08/05 07:42:40;;;;;;;9.52;4.72;;;16.40;99.90;;;;;;5073755;28;20096;-75
2023/08/05 07:45:11;;;;;;;8.10;3.83;;;16.40;99.90;;;;;;5073956;28;20043;-75
2023/08/05 07:47:41;;;;;;;6.80;4.28;;;16.50;99.90;;;;;;5107708;27;20054;-74
2023/08/05 07:50:11;;;;;;;9.45;4.18;;;16.50;99.90;;;;;;5060490;28;20059;-75
2023/08/05 07:52:37;;;;;;;8.07;4.28;;;16.60;99.90;;;;;;5076999;28;20062;-74
2023/08/05 07:55:04;;;;;;;10.15;4.93;;;16.60;99.90;;;;;;5060190;28;20059;-74
2023/08/05 07:57:30;;;;;;;9.90;5.80;;;16.60;99.90;;;;;;5076407;28;20492;-75
2023/08/05 07:59:57;;;;;;;7.15;4.38;;;16.60;99.90;;;;;;5060838;28;20136;-74
2023/08/05 08:02:24;;;;;;;8.13;4.97;;;16.70;99.90;;;;;;5059145;28;20630;-74
2023/08/05 08:04:54;;;;;;;6.80;4.07;;;16.60;99.90;;;;;;5072263;28;20383;-74
2023/08/05 08:07:21;;;;;;;7.70;4.78;;;16.60;99.90;;;;;;5059078;28;20127;-74
2023/08/05 08:09:47;;;;;;;5.80;3.83;;;16.60;99.90;;;;;;5075280;28;20095;-75
2023/08/05 08:12:12;;;;;;;9.30;5.25;;;16.60;99.90;;;;;;5072283;28;20042;-74
2023/08/05 08:14:38;;;;;;;7.03;3.80;;;16.60;99.90;;;;;;5055435;28;20044;-74
2023/08/05 08:17:04;;;;;;;7.95;4.15;;;16.70;99.90;;;;;;5067850;28;20048;-74
2023/08/05 08:19:30;;;;;;;7.32;4.15;;;16.70;99.90;;;;;;5070342;28;20150;-75
2023/08/05 08:21:56;;;;;;;8.52;4.30;;;16.80;99.90;;;;;;5072549;28;20444;-74
2023/08/05 08:24:21;;;;;;;8.15;4.28;;;16.80;99.90;;;;;;5055029;28;20043;-74
2023/08/05 08:26:47;;;;;;;6.63;4.00;;;17.00;99.90;;;;;;5076899;28;20048;-74
2023/08/05 08:29:13;;;;;;;8.88;3.80;;;17.10;99.90;;;;;;5076140;28;20047;-74
2023/08/05 08:31:39;;;;;;;8.43;4.18;;;17.20;99.90;;;;;;5076458;28;20035;-74
2023/08/05 08:34:04;;;;;;;6.00;3.50;;;17.30;99.90;;;;;;5075655;28;20134;-74
2023/08/05 08:36:30;;;;;;;6.75;3.78;;;17.40;99.90;;;;;;5059201;28;20039;-75
2023/08/05 08:38:56;;;;;;;7.85;3.83;;;17.40;99.90;;;;;;5093035;28;20073;-74
2023/08/05 08:41:24;;;;;;;7.07;4.13;;;17.40;99.90;;;;;;5077710;28;20504;-74
2023/08/05 08:43:51;;;;;;;5.43;3.15;;;17.40;99.90;;;;;;5059043;28;20049;-74
2023/08/05 08:46:20;;;;;;;5.15;3.45;;;17.40;99.90;;;;;;5090773;28;20046;-74
2023/08/05 08:48:51;;;;;;;6.43;3.33;;;17.50;99.90;;;;;;5072542;28;20401;-74
2023/08/05 08:51:19;;;;;;;5.85;3.30;;;17.50;99.90;;;;;;5106005;27;20063;-74
2023/08/05 08:53:47;;;;;;;6.20;3.97;;;17.50;99.90;;;;;;5073032;28;20047;-74
2023/08/05 08:56:13;;;;;;;10.02;4.72;;;17.50;99.90;;;;;;5052470;28;20196;-74
2023/08/05 08:58:39;;;;;;;7.57;3.72;;;17.60;99.90;;;;;;5054432;28;20051;-74
2023/08/05 09:01:05;;;;;;;7.43;3.85;;;17.50;99.90;;;;;;5069036;28;20054;-75
2023/08/05 09:03:33;;;;;;;5.60;3.30;;;17.60;99.90;;;;;;5104181;27;20043;-74
2023/08/05 09:05:59;;;;;;;5.75;2.70;;;17.80;99.90;;;;;;5056422;28;20046;-74
2023/08/05 09:08:25;;;;;;;7.13;3.10;;;18.00;99.90;;;;;;5074319;28;20048;-74
2023/08/05 09:10:51;;;;;;;6.53;3.42;;;18.10;99.90;;;;;;5071431;28;20040;-75
2023/08/05 09:13:17;;;;;;;5.63;3.45;;;18.30;99.90;;;;;;5072845;28;20108;-74
2023/08/05 09:15:43;;;;;;;6.05;3.22;;;18.50;99.90;;;;;;5080324;28;20354;-75
2023/08/05 09:18:09;;;;;;;5.05;2.95;;;18.60;99.90;;;;;;5079481;28;20490;-75
2023/08/05 09:20:36;;;;;;;6.95;2.78;;;18.70;99.90;;;;;;5077666;28;20659;-75
2023/08/05 09:23:08;;;;;;;4.90;3.00;;;18.70;99.90;;;;;;5078941;28;20075;-74
2023/08/05 09:25:45;;;;;;;4.82;2.78;;;18.80;99.90;;;;;;5078738;28;20051;-74
2023/08/05 09:28:11;;;;;;;4.63;2.85;;;18.80;99.90;;;;;;5080190;28;20105;-75
2023/08/05 09:30:37;;;;;;;3.78;2.17;;;18.70;99.90;;;;;;5078450;28;20525;-75
2023/08/05 09:33:04;;;;;;;4.30;2.58;;;18.70;99.90;;;;;;5080123;28;20096;-75
2023/08/05 09:35:29;;;;;;;3.75;2.20;;;18.80;99.90;;;;;;5078389;28;20036;-75
2023/08/05 09:37:55;;;;;;;4.05;2.17;;;18.80;99.90;;;;;;5063021;28;20043;-74
2023/08/05 09:40:28;;;;;;;4.43;2.60;;;18.90;99.90;;;;;;5076970;28;20043;-75
2023/08/05 09:42:59;;;;;;;3.90;2.30;;;19.00;99.90;;;;;;5074204;28;20048;-74
2023/08/05 09:45:33;;;;;;;6.18;2.85;;;19.00;99.90;;;;;;5076675;28;20111;-75
2023/08/05 09:48:07;;;;;;;12.68;3.70;;;19.10;99.90;;;;;;5074891;28;20506;-74
2023/08/05 09:50:37;;;;;;;5.13;2.40;;;19.10;99.90;;;;;;5078446;28;20134;-73
2023/08/05 09:53:07;;;;;;;;;;;19.30;99.90;;;;;;5072652;28;20043;-75
2023/08/05 09:55:34;;;;;;;5.57;2.55;;;19.50;99.90;;;;;;5071284;28;20394;-74
2023/08/05 09:58:00;;;;;;;4.50;2.30;;;19.60;99.90;;;;;;5071666;28;20036;-74
2023/08/05 10:00:28;;;;;;;4.13;2.25;;;19.70;99.90;;;;;;5072194;28;20048;-75
2023/08/05 10:02:54;;;;;;;3.45;2.15;;;19.80;99.90;;;;;;5073341;28;20035;-75
2023/08/05 10:05:25;;;;;;;3.63;2.25;;;20.00;99.90;;;;;;5053546;28;20044;-75
2023/08/05 10:07:53;;;;;;;3.75;2.30;;;20.00;99.90;;;;;;5060887;28;20043;-74
2023/08/05 10:10:22;;;;;;;6.25;2.70;;;20.00;99.90;;;;;;5079115;28;20070;-75
2023/08/05 10:12:52;;;;;;;6.40;2.90;;;20.00;99.90;;;;;;5077328;28;20452;-75
2023/08/05 10:15:24;;;;;;;5.05;2.95;;;20.00;99.90;;;;;;5061020;28;20039;-75
2023/08/05 10:17:50;;;;;;;5.10;2.80;;;19.90;99.90;;;;;;5060484;28;20124;-74
2023/08/05 10:20:16;;;;;;;9.57;3.17;;;19.80;99.90;;;;;;5080648;28;20452;-74
2023/08/05 10:23:03;;;;;;;4.93;2.83;;;19.80;99.90;;;;;;5058545;28;20405;-75
2023/08/05 10:25:49;;;;;;;5.10;2.60;;;19.60;99.90;;;;;;5074585;28;20410;-75
2023/08/05 10:28:25;;;;;;;4.38;2.83;;;19.60;99.90;;;;;;5074982;28;20445;-74
2023/08/05 10:30:53;;;;;;;4.80;2.75;;;19.70;99.90;;;;;;5109793;27;20045;-75
2023/08/05 10:33:19;;;;;;;6.35;2.78;;;19.80;99.90;;;;;;5058932;28;20075;-74
2023/08/05 10:35:46;;;;;;;5.00;3.03;;;19.90;99.90;;;;;;5074185;28;20044;-75
2023/08/05 10:38:20;;;;;;;3.70;2.30;;;20.00;99.90;;;;;;5058216;28;20048;-74
2023/08/05 10:40:55;;;;;;;5.32;2.38;;;20.00;99.90;;;;;;5074065;28;20035;-75
2023/08/05 10:43:31;;;;;;;4.30;3.00;;;20.10;99.90;;;;;;5059741;28;20056;-74
2023/08/05 10:46:06;;;;;;;5.47;3.33;;;20.00;99.90;;;;;;5051926;28;20722;-74
2023/08/05 10:48:32;;;;;;;3.92;2.75;;;20.10;99.90;;;;;;5077152;28;20044;-75
2023/08/05 10:51:02;;;;;;;4.03;2.83;;;20.20;99.90;;;;;;5076021;28;20197;-74
2023/08/05 10:53:30;;;;;;;4.85;2.70;;;20.40;99.90;;;;;;5077080;27;20498;-75
2023/08/05 10:55:56;;;;;;;5.05;3.10;;;20.50;99.90;;;;;;5071948;28;20505;-75
2023/08/05 10:58:30;;;;;;;6.00;3.20;;;20.50;99.90;;;;;;5110733;27;20036;-74
2023/08/05 11:01:01;;;;;;;7.72;3.38;;;20.50;99.90;;;;;;5059090;28;20073;-73
2023/08/05 11:03:39;;;;;;;5.93;3.13;;;20.30;99.90;;;;;;5094191;27;20244;-74
2023/08/05 11:06:06;;;;;;;6.93;4.10;;;20.20;99.90;;;;;;5074915;28;20048;-74
2023/08/05 11:08:33;;;;;;;7.45;3.50;;;20.20;99.90;;;;;;5073864;28;20509;-74
2023/08/05 11:11:09;;;;;;;4.88;3.50;;;20.10;99.90;;;;;;5073087;28;20096;-74
2023/08/05 11:13:54;;;;;;;5.53;3.75;;;20.10;99.90;;;;;;5106769;27;20166;-74
2023/08/05 11:16:20;;;;;;;6.15;4.10;;;20.00;99.90;;;;;;5076358;28;20050;-75
2023/08/05 11:18:55;;;;;;;8.43;5.38;;;20.00;99.90;;;;;;5074298;28;20047;-75
2023/08/05 11:21:21;;;;;;;8.27;3.88;;;20.10;99.90;;;;;;5109049;27;20043;-75
2023/08/05 11:23:47;;;;;;;6.25;4.00;;;20.30;99.90;;;;;;5069294;28;21379;-75
2023/08/05 11:26:13;;;;;;;7.15;4.40;;;20.40;99.90;;;;;;5066863;28;20035;-75
2023/08/05 11:28:48;;;;;;;6.75;3.95;;;20.40;99.90;;;;;;5050476;28;20092;-75
2023/08/05 11:31:27;;;;;;;6.90;3.45;;;20.40;99.90;;;;;;5051563;28;20043;-74
2023/08/05 11:33:54;;;;;;;5.28;3.42;;;20.30;99.90;;;;;;5077614;28;20051;-75
2023/08/05 11:36:27;;;;;;;6.28;3.75;;;20.20;99.90;;;;;;5075660;28;20043;-75
2023/08/05 11:38:57;;;;;;;6.45;4.07;;;20.20;99.90;;;;;;5077725;28;20490;-76
2023/08/05 11:41:27;;;;;;;5.03;3.78;;;20.10;99.90;;;;;;5075990;28;20131;-75
2023/08/05 11:43:55;;;;;;;;;;;20.00;99.90;;;;;;5092675;28;20545;-75
2023/08/05 11:46:25;;;;;;;6.13;5.18;;;20.00;99.90;;;;;;5058579;28;20113;-75
2023/08/05 11:49:09;;;;;;;6.97;5.68;;;19.90;99.90;;;;;;5074697;28;20131;-75
2023/08/05 11:51:48;;;;;;;8.57;6.45;;;19.90;99.90;;;;;;5077209;28;20039;-75
2023/08/05 11:54:34;;;;;;;7.70;6.57;;;19.80;99.90;;;;;;5073741;28;20505;-75
2023/08/05 11:57:16;;;;;;;8.15;7.45;;;19.80;99.90;;;;;;5075900;28;20143;-76
2023/08/05 11:59:44;;;;;;;8.90;7.75;;;19.60;99.90;;;;;;5060207;28;20406;-76
2023/08/05 12:02:11;;;;;;;9.38;8.52;;;19.50;99.90;;;;;;5071643;28;20052;-76
2023/08/05 12:04:41;;;;;;;9.95;8.73;;;19.40;99.90;;;;;;5091410;28;20071;-76
2023/08/05 12:07:15;;;;;;;9.82;8.85;;;19.30;99.90;;;;;;5092488;28;20377;-76
2023/08/05 12:09:42;;;;;;;11.68;9.88;;;19.30;99.90;;;;;;5057421;28;20043;-76
2023/08/05 12:12:18;;;;;;;9.90;8.85;;;19.20;99.90;;;;;;5059327;28;20122;-77
2023/08/05 12:14:44;;;;;;;11.45;10.07;;;19.20;99.90;;;;;;5057567;28;20394;-76
2023/08/05 12:17:10;;;;;;;10.75;9.75;;;19.20;99.90;;;;;;5072999;28;20042;-76
2023/08/05 12:19:40;;;;;;;12.90;11.68;;;19.20;99.90;;;;;;5076074;28;20417;-77
2023/08/05 12:22:09;;;;;;;11.90;10.90;;;19.20;99.90;;;;;;5069589;28;20077;-76
2023/08/05 12:24:34;;;;;;;16.05;14.23;;;19.10;99.90;;;;;;5070393;28;20082;-76
2023/08/05 12:27:00;;;;;;;12.75;11.52;;;19.20;99.90;;;;;;5070003;28;20032;-76
2023/08/05 12:29:26;;;;;;;11.55;10.38;;;19.30;99.90;;;;;;5103869;27;20058;-75
2023/08/05 12:31:51;;;;;;;13.55;12.25;;;19.30;99.90;;;;;;5073400;28;20074;-77
2023/08/05 12:34:20;;;;;;;15.02;12.98;;;19.40;99.90;;;;;;5060149;28;20048;-76
2023/08/05 12:36:49;;;;;;;14.75;13.30;;;19.50;99.90;;;;;;5109837;27;20102;-76
2023/08/05 12:39:14;;;;;;;16.25;14.68;;;19.50;99.90;;;;;;5080431;28;20063;-76
2023/08/05 12:41:49;;;;;;;16.42;14.93;;;19.60;99.90;;;;;;5065622;28;20108;-76
2023/08/05 12:44:15;;;;;;;16.27;14.88;;;19.70;99.90;;;;;;5063301;28;20130;-75
2023/08/05 12:46:40;;;;;;;16.15;14.75;;;19.80;99.90;;;;;;5062848;28;20123;-77